sensor_id;sensor_type;location;lat;lon;timestamp;pressure;altitude;pressure_sealevel;temperature;humidity
4326;BME280;58429;49.826;10.880;2023-02-26T00:00:38;98124;;;0.15;71.64
4326;BME280;58429;49.826;10.880;2023-02-26T00:01:38;98127;;;0.14;71.66
4326;BME280;58429;49.826;10.880;2023-02-26T00:02:38;98126;;;0.14;72.24
4326;BME280;58429;49.826;10.880;2023-02-26T00:03:38;98133;;;0.14;72.56
4326;BME280;58429;49.826;10.880;2023-02-26T00:04:38;98131;;;0.1;73.08
4326;BME280;58429;49.826;10.880;2023-02-26T00:05:38;98135;;;0.05;73.11
4326;BME280;58429;49.826;10.880;2023-02-26T00:06:38;98136;;;0.05;73.52
4326;BME280;58429;49.826;10.880;2023-02-26T00:07:38;98133;;;0;75.1
4326;BME280;58429;49.826;10.880;2023-02-26T00:08:38;98117;;;-0.02;75.92
4326;BME280;58429;49.826;10.880;2023-02-26T00:09:38;98125;;;-0.05;76.35
4326;BME280;58429;49.826;10.880;2023-02-26T00:10:38;98122;;;-0.06;76.36
4326;BME280;58429;49.826;10.880;2023-02-26T00:11:38;98115;;;-0.11;76.69
4326;BME280;58429;49.826;10.880;2023-02-26T00:12:38;98122;;;-0.09;76.74
4326;BME280;58429;49.826;10.880;2023-02-26T00:13:39;98121;;;-0.11;76.86
4326;BME280;58429;49.826;10.880;2023-02-26T00:14:38;98121;;;-0.13;76.77
4326;BME280;58429;49.826;10.880;2023-02-26T00:15:38;98123;;;-0.11;76.79
4326;BME280;58429;49.826;10.880;2023-02-26T00:16:38;98121;;;-0.17;77.11
4326;BME280;58429;49.826;10.880;2023-02-26T00:17:40;98122;;;-0.18;76.93
4326;BME280;58429;49.826;10.880;2023-02-26T00:18:38;98127;;;-0.2;76.86
4326;BME280;58429;49.826;10.880;2023-02-26T00:19:38;98129;;;-0.2;76.7
4326;BME280;58429;49.826;10.880;2023-02-26T00:20:38;98128;;;-0.19;76.69
4326;BME280;58429;49.826;10.880;2023-02-26T00:21:38;98130;;;-0.21;76.63
4326;BME280;58429;49.826;10.880;2023-02-26T00:22:38;98133;;;-0.21;76.33
4326;BME280;58429;49.826;10.880;2023-02-26T00:23:38;98131;;;-0.21;76.28
4326;BME280;58429;49.826;10.880;2023-02-26T00:24:38;98134;;;-0.21;76.07
4326;BME280;58429;49.826;10.880;2023-02-26T00:25:38;98138;;;-0.29;75.98
4326;BME280;58429;49.826;10.880;2023-02-26T00:26:38;98140;;;-0.29;75.89
4326;BME280;58429;49.826;10.880;2023-02-26T00:27:38;98145;;;-0.28;75.7
4326;BME280;58429;49.826;10.880;2023-02-26T00:28:38;98145;;;-0.26;75.41
4326;BME280;58429;49.826;10.880;2023-02-26T00:29:39;98147;;;-0.29;75.38
4326;BME280;58429;49.826;10.880;2023-02-26T00:30:38;98144;;;-0.32;75.19
4326;BME280;58429;49.826;10.880;2023-02-26T00:31:38;98145;;;-0.39;75.17
4326;BME280;58429;49.826;10.880;2023-02-26T00:32:38;98143;;;-0.29;75.23
4326;BME280;58429;49.826;10.880;2023-02-26T00:33:38;98146;;;-0.3;75.25
4326;BME280;58429;49.826;10.880;2023-02-26T00:34:38;98148;;;-0.31;75.18
4326;BME280;58429;49.826;10.880;2023-02-26T00:35:38;98149;;;-0.3;75.16
4326;BME280;58429;49.826;10.880;2023-02-26T00:36:39;98150;;;-0.31;75.1
4326;BME280;58429;49.826;10.880;2023-02-26T00:37:48;98153;;;-0.31;75.1
4326;BME280;58429;49.826;10.880;2023-02-26T00:38:38;98150;;;-0.32;75.17
4326;BME280;58429;49.826;10.880;2023-02-26T00:39:40;98153;;;-0.32;75.27
4326;BME280;58429;49.826;10.880;2023-02-26T00:40:39;98157;;;-0.32;75.34
4326;BME280;58429;49.826;10.880;2023-02-26T00:41:38;98154;;;-0.35;75.28
4326;BME280;58429;49.826;10.880;2023-02-26T00:42:38;98155;;;-0.35;75.32
4326;BME280;58429;49.826;10.880;2023-02-26T00:43:38;98152;;;-0.33;75.42
4326;BME280;58429;49.826;10.880;2023-02-26T00:44:38;98157;;;-0.36;75.47
4326;BME280;58429;49.826;10.880;2023-02-26T00:45:38;98154;;;-0.37;75.47
4326;BME280;58429;49.826;10.880;2023-02-26T00:46:40;98156;;;-0.38;75.48
4326;BME280;58429;49.826;10.880;2023-02-26T00:47:39;98160;;;-0.4;75.56
4326;BME280;58429;49.826;10.880;2023-02-26T00:48:41;98159;;;-0.4;75.59
4326;BME280;58429;49.826;10.880;2023-02-26T00:49:43;98154;;;-0.4;75.71
4326;BME280;58429;49.826;10.880;2023-02-26T00:50:39;98153;;;-0.4;75.72
4326;BME280;58429;49.826;10.880;2023-02-26T00:51:40;98154;;;-0.4;75.74
4326;BME280;58429;49.826;10.880;2023-02-26T00:52:40;98160;;;-0.39;75.78
4326;BME280;58429;49.826;10.880;2023-02-26T00:53:39;98159;;;-0.4;75.79
4326;BME280;58429;49.826;10.880;2023-02-26T00:54:38;98159;;;-0.41;75.8
4326;BME280;58429;49.826;10.880;2023-02-26T00:55:38;98156;;;-0.41;75.81
4326;BME280;58429;49.826;10.880;2023-02-26T00:56:38;98156;;;-0.4;75.8
4326;BME280;58429;49.826;10.880;2023-02-26T00:57:38;98156;;;-0.42;75.8
4326;BME280;58429;49.826;10.880;2023-02-26T00:58:38;98157;;;-0.44;75.79
4326;BME280;58429;49.826;10.880;2023-02-26T00:59:38;98160;;;-0.42;75.86
4326;BME280;58429;49.826;10.880;2023-02-26T01:00:38;98154;;;-0.42;75.9
4326;BME280;58429;49.826;10.880;2023-02-26T01:01:38;98155;;;-0.47;75.91
4326;BME280;58429;49.826;10.880;2023-02-26T01:02:38;98153;;;-0.47;75.94
4326;BME280;58429;49.826;10.880;2023-02-26T01:03:38;98155;;;-0.48;75.96
4326;BME280;58429;49.826;10.880;2023-02-26T01:04:38;98147;;;-0.48;76
4326;BME280;58429;49.826;10.880;2023-02-26T01:05:38;98148;;;-0.54;75.91
4326;BME280;58429;49.826;10.880;2023-02-26T01:06:40;98157;;;-0.53;75.85
4326;BME280;58429;49.826;10.880;2023-02-26T01:07:39;98152;;;-0.54;75.87
4326;BME280;58429;49.826;10.880;2023-02-26T01:08:39;98156;;;-0.57;75.96
4326;BME280;58429;49.826;10.880;2023-02-26T01:09:38;98150;;;-0.58;76
4326;BME280;58429;49.826;10.880;2023-02-26T01:10:38;98153;;;-0.61;76.04
4326;BME280;58429;49.826;10.880;2023-02-26T01:11:38;98152;;;-0.64;76.04
4326;BME280;58429;49.826;10.880;2023-02-26T01:12:38;98145;;;-0.64;75.99
4326;BME280;58429;49.826;10.880;2023-02-26T01:13:38;98148;;;-0.64;76
4326;BME280;58429;49.826;10.880;2023-02-26T01:14:38;98144;;;-0.68;76.07
4326;BME280;58429;49.826;10.880;2023-02-26T01:15:39;98146;;;-0.69;76
4326;BME280;58429;49.826;10.880;2023-02-26T01:16:41;98150;;;-0.73;75.82
4326;BME280;58429;49.826;10.880;2023-02-26T01:17:39;98144;;;-0.72;75.81
4326;BME280;58429;49.826;10.880;2023-02-26T01:18:40;98145;;;-0.72;75.87
4326;BME280;58429;49.826;10.880;2023-02-26T01:19:40;98137;;;-0.74;75.84
4326;BME280;58429;49.826;10.880;2023-02-26T01:20:39;98138;;;-0.76;75.85
4326;BME280;58429;49.826;10.880;2023-02-26T01:21:40;98134;;;-0.74;75.86
4326;BME280;58429;49.826;10.880;2023-02-26T01:22:39;98135;;;-0.79;75.81
4326;BME280;58429;49.826;10.880;2023-02-26T01:23:39;98142;;;-0.79;75.77
4326;BME280;58429;49.826;10.880;2023-02-26T01:24:38;98143;;;-0.83;75.8
4326;BME280;58429;49.826;10.880;2023-02-26T01:25:39;98134;;;-0.83;75.84
4326;BME280;58429;49.826;10.880;2023-02-26T01:26:38;98138;;;-0.88;75.8
4326;BME280;58429;49.826;10.880;2023-02-26T01:27:38;98136;;;-0.91;75.8
4326;BME280;58429;49.826;10.880;2023-02-26T01:28:38;98139;;;-0.92;75.82
4326;BME280;58429;49.826;10.880;2023-02-26T01:29:38;98141;;;-0.9;75.81
4326;BME280;58429;49.826;10.880;2023-02-26T01:30:38;98142;;;-0.94;75.8
4326;BME280;58429;49.826;10.880;2023-02-26T01:31:41;98140;;;-0.96;75.78
4326;BME280;58429;49.826;10.880;2023-02-26T01:32:41;98140;;;-0.97;75.79
4326;BME280;58429;49.826;10.880;2023-02-26T01:33:39;98140;;;-0.97;75.78
4326;BME280;58429;49.826;10.880;2023-02-26T01:34:40;98134;;;-0.97;75.81
4326;BME280;58429;49.826;10.880;2023-02-26T01:35:39;98140;;;-0.98;75.83
4326;BME280;58429;49.826;10.880;2023-02-26T01:36:40;98141;;;-0.97;75.85
4326;BME280;58429;49.826;10.880;2023-02-26T01:37:40;98146;;;-0.99;75.82
4326;BME280;58429;49.826;10.880;2023-02-26T01:38:39;98137;;;-1;75.76
4326;BME280;58429;49.826;10.880;2023-02-26T01:39:39;98143;;;-1.01;75.7
4326;BME280;58429;49.826;10.880;2023-02-26T01:40:47;98144;;;-0.99;75.61
4326;BME280;58429;49.826;10.880;2023-02-26T01:41:39;98141;;;-1.05;75.57
4326;BME280;58429;49.826;10.880;2023-02-26T01:42:38;98142;;;-1.04;75.54
4326;BME280;58429;49.826;10.880;2023-02-26T01:43:40;98144;;;-1.03;75.52
4326;BME280;58429;49.826;10.880;2023-02-26T01:44:39;98144;;;-1.05;75.48
4326;BME280;58429;49.826;10.880;2023-02-26T01:45:42;98148;;;-1.06;75.46
4326;BME280;58429;49.826;10.880;2023-02-26T01:46:43;98142;;;-1.06;75.48
4326;BME280;58429;49.826;10.880;2023-02-26T01:47:39;98148;;;-1.07;75.47
4326;BME280;58429;49.826;10.880;2023-02-26T01:48:42;98151;;;-1.09;75.51
4326;BME280;58429;49.826;10.880;2023-02-26T01:49:39;98148;;;-1.11;75.56
4326;BME280;58429;49.826;10.880;2023-02-26T01:50:38;98145;;;-1.11;75.56
4326;BME280;58429;49.826;10.880;2023-02-26T01:51:40;98144;;;-1.1;75.52
4326;BME280;58429;49.826;10.880;2023-02-26T01:53:09;98152;;;-1.09;75.36
4326;BME280;58429;49.826;10.880;2023-02-26T01:53:38;98150;;;-1.11;75.22
4326;BME280;58429;49.826;10.880;2023-02-26T01:54:38;98157;;;-1.13;75.2
4326;BME280;58429;49.826;10.880;2023-02-26T01:55:38;98160;;;-1.14;75.05
4326;BME280;58429;49.826;10.880;2023-02-26T01:56:38;98154;;;-1.14;74.99
4326;BME280;58429;49.826;10.880;2023-02-26T01:57:38;98153;;;-1.15;75.03
4326;BME280;58429;49.826;10.880;2023-02-26T01:58:39;98158;;;-1.12;75.03
4326;BME280;58429;49.826;10.880;2023-02-26T01:59:40;98163;;;-1.11;75.03
4326;BME280;58429;49.826;10.880;2023-02-26T02:00:38;98164;;;-1.12;74.85
4326;BME280;58429;49.826;10.880;2023-02-26T02:01:38;98164;;;-1.12;74.88
4326;BME280;58429;49.826;10.880;2023-02-26T02:02:38;98160;;;-1.09;74.76
4326;BME280;58429;49.826;10.880;2023-02-26T02:03:39;98163;;;-1.08;74.68
4326;BME280;58429;49.826;10.880;2023-02-26T02:04:39;98163;;;-1.08;74.57
4326;BME280;58429;49.826;10.880;2023-02-26T02:05:40;98168;;;-1.07;74.6
4326;BME280;58429;49.826;10.880;2023-02-26T02:06:38;98160;;;-1.05;74.68
4326;BME280;58429;49.826;10.880;2023-02-26T02:07:38;98165;;;-1.06;74.6
4326;BME280;58429;49.826;10.880;2023-02-26T02:08:38;98166;;;-1.05;74.47
4326;BME280;58429;49.826;10.880;2023-02-26T02:09:39;98167;;;-1.07;74.38
4326;BME280;58429;49.826;10.880;2023-02-26T02:10:39;98164;;;-1.05;74.43
4326;BME280;58429;49.826;10.880;2023-02-26T02:11:39;98166;;;-1.07;74.41
4326;BME280;58429;49.826;10.880;2023-02-26T02:12:39;98168;;;-1.05;74.54
4326;BME280;58429;49.826;10.880;2023-02-26T02:13:41;98166;;;-1.07;74.57
4326;BME280;58429;49.826;10.880;2023-02-26T02:14:42;98160;;;-1.11;74.4
4326;BME280;58429;49.826;10.880;2023-02-26T02:15:40;98157;;;-1.1;74.46
4326;BME280;58429;49.826;10.880;2023-02-26T02:16:40;98162;;;-1.1;74.54
4326;BME280;58429;49.826;10.880;2023-02-26T02:17:40;98163;;;-1.07;74.59
4326;BME280;58429;49.826;10.880;2023-02-26T02:18:40;98162;;;-1.09;74.64
4326;BME280;58429;49.826;10.880;2023-02-26T02:19:45;98162;;;-1.09;74.68
4326;BME280;58429;49.826;10.880;2023-02-26T02:20:43;98165;;;-1.11;74.6
4326;BME280;58429;49.826;10.880;2023-02-26T02:21:42;98163;;;-1.12;74.7
4326;BME280;58429;49.826;10.880;2023-02-26T02:22:50;98159;;;-1.08;74.79
4326;BME280;58429;49.826;10.880;2023-02-26T02:23:39;98169;;;-1.1;74.8
4326;BME280;58429;49.826;10.880;2023-02-26T02:24:41;98168;;;-1.13;74.9
4326;BME280;58429;49.826;10.880;2023-02-26T02:25:45;98159;;;-1.13;74.97
4326;BME280;58429;49.826;10.880;2023-02-26T02:26:41;98170;;;-1.14;74.98
4326;BME280;58429;49.826;10.880;2023-02-26T02:27:39;98169;;;-1.13;75.09
4326;BME280;58429;49.826;10.880;2023-02-26T02:28:41;98175;;;-1.11;75.11
4326;BME280;58429;49.826;10.880;2023-02-26T02:29:44;98176;;;-1.11;75.06
4326;BME280;58429;49.826;10.880;2023-02-26T02:30:48;98182;;;-1.11;75.05
4326;BME280;58429;49.826;10.880;2023-02-26T02:31:39;98181;;;-1.11;75.08
4326;BME280;58429;49.826;10.880;2023-02-26T02:32:40;98176;;;-1.11;75.06
4326;BME280;58429;49.826;10.880;2023-02-26T02:33:41;98184;;;-1.09;75.01
4326;BME280;58429;49.826;10.880;2023-02-26T02:34:40;98183;;;-1.09;74.98
4326;BME280;58429;49.826;10.880;2023-02-26T02:35:40;98192;;;-1.06;74.89
4326;BME280;58429;49.826;10.880;2023-02-26T02:36:40;98187;;;-1.05;74.85
4326;BME280;58429;49.826;10.880;2023-02-26T02:37:40;98188;;;-1.04;74.95
4326;BME280;58429;49.826;10.880;2023-02-26T02:38:41;98189;;;-1.02;74.96
4326;BME280;58429;49.826;10.880;2023-02-26T02:39:39;98196;;;-1.01;75.01
4326;BME280;58429;49.826;10.880;2023-02-26T02:40:40;98187;;;-0.99;75.06
4326;BME280;58429;49.826;10.880;2023-02-26T02:41:39;98194;;;-0.98;75.03
4326;BME280;58429;49.826;10.880;2023-02-26T02:42:41;98191;;;-0.99;74.9
4326;BME280;58429;49.826;10.880;2023-02-26T02:43:39;98186;;;-0.95;74.86
4326;BME280;58429;49.826;10.880;2023-02-26T02:44:40;98186;;;-0.94;74.8
4326;BME280;58429;49.826;10.880;2023-02-26T02:45:40;98189;;;-0.97;74.76
4326;BME280;58429;49.826;10.880;2023-02-26T02:46:39;98189;;;-0.95;74.71
4326;BME280;58429;49.826;10.880;2023-02-26T02:47:39;98184;;;-0.93;74.64
4326;BME280;58429;49.826;10.880;2023-02-26T02:48:40;98187;;;-0.93;74.57
4326;BME280;58429;49.826;10.880;2023-02-26T02:49:40;98187;;;-0.93;74.53
4326;BME280;58429;49.826;10.880;2023-02-26T02:50:39;98192;;;-0.92;74.54
4326;BME280;58429;49.826;10.880;2023-02-26T02:51:40;98193;;;-0.94;74.52
4326;BME280;58429;49.826;10.880;2023-02-26T02:52:40;98190;;;-0.9;74.6
4326;BME280;58429;49.826;10.880;2023-02-26T02:53:40;98191;;;-0.91;74.69
4326;BME280;58429;49.826;10.880;2023-02-26T02:54:39;98193;;;-0.93;74.76
4326;BME280;58429;49.826;10.880;2023-02-26T02:55:39;98193;;;-0.91;74.78
4326;BME280;58429;49.826;10.880;2023-02-26T02:56:40;98197;;;-0.94;74.83
4326;BME280;58429;49.826;10.880;2023-02-26T02:57:39;98201;;;-0.93;74.93
4326;BME280;58429;49.826;10.880;2023-02-26T02:58:40;98195;;;-0.92;74.98
4326;BME280;58429;49.826;10.880;2023-02-26T02:59:40;98196;;;-0.94;74.98
4326;BME280;58429;49.826;10.880;2023-02-26T03:00:40;98203;;;-0.94;74.99
4326;BME280;58429;49.826;10.880;2023-02-26T03:01:39;98203;;;-0.97;74.91
4326;BME280;58429;49.826;10.880;2023-02-26T03:02:40;98194;;;-0.98;74.9
4326;BME280;58429;49.826;10.880;2023-02-26T03:03:40;98197;;;-0.99;74.84
4326;BME280;58429;49.826;10.880;2023-02-26T03:04:39;98194;;;-1.02;74.8
4326;BME280;58429;49.826;10.880;2023-02-26T03:05:39;98203;;;-1.01;74.81
4326;BME280;58429;49.826;10.880;2023-02-26T03:06:39;98204;;;-1.03;74.77
4326;BME280;58429;49.826;10.880;2023-02-26T03:07:40;98199;;;-1.05;74.82
4326;BME280;58429;49.826;10.880;2023-02-26T03:08:40;98200;;;-1.04;74.79
4326;BME280;58429;49.826;10.880;2023-02-26T03:09:39;98205;;;-1.09;74.78
4326;BME280;58429;49.826;10.880;2023-02-26T03:10:39;98205;;;-1.07;74.87
4326;BME280;58429;49.826;10.880;2023-02-26T03:11:39;98206;;;-1.06;74.9
4326;BME280;58429;49.826;10.880;2023-02-26T03:12:40;98203;;;-1.07;74.89
4326;BME280;58429;49.826;10.880;2023-02-26T03:13:39;98204;;;-1.09;74.89
4326;BME280;58429;49.826;10.880;2023-02-26T03:14:39;98208;;;-1.1;74.87
4326;BME280;58429;49.826;10.880;2023-02-26T03:15:53;98213;;;-1.09;74.85
4326;BME280;58429;49.826;10.880;2023-02-26T03:16:44;98203;;;-1.12;74.85
4326;BME280;58429;49.826;10.880;2023-02-26T03:17:41;98208;;;-1.13;74.87
4326;BME280;58429;49.826;10.880;2023-02-26T03:18:43;98213;;;-1.14;74.84
4326;BME280;58429;49.826;10.880;2023-02-26T03:19:40;98214;;;-1.16;74.8
4326;BME280;58429;49.826;10.880;2023-02-26T03:20:41;98213;;;-1.17;74.87
4326;BME280;58429;49.826;10.880;2023-02-26T03:21:41;98211;;;-1.17;74.94
4326;BME280;58429;49.826;10.880;2023-02-26T03:22:40;98218;;;-1.16;75.01
4326;BME280;58429;49.826;10.880;2023-02-26T03:23:39;98219;;;-1.18;75.02
4326;BME280;58429;49.826;10.880;2023-02-26T03:24:40;98221;;;-1.2;75
4326;BME280;58429;49.826;10.880;2023-02-26T03:25:40;98224;;;-1.19;75.04
4326;BME280;58429;49.826;10.880;2023-02-26T03:26:39;98224;;;-1.21;75.06
4326;BME280;58429;49.826;10.880;2023-02-26T03:27:41;98224;;;-1.21;75.08
4326;BME280;58429;49.826;10.880;2023-02-26T03:28:40;98216;;;-1.23;75.15
4326;BME280;58429;49.826;10.880;2023-02-26T03:29:40;98229;;;-1.22;75.16
4326;BME280;58429;49.826;10.880;2023-02-26T03:30:40;98225;;;-1.23;75.23
4326;BME280;58429;49.826;10.880;2023-02-26T03:31:40;98227;;;-1.26;75.25
4326;BME280;58429;49.826;10.880;2023-02-26T03:32:41;98232;;;-1.25;75.34
4326;BME280;58429;49.826;10.880;2023-02-26T03:33:41;98230;;;-1.25;75.36
4326;BME280;58429;49.826;10.880;2023-02-26T03:34:40;98235;;;-1.24;75.43
4326;BME280;58429;49.826;10.880;2023-02-26T03:35:41;98239;;;-1.24;75.49
4326;BME280;58429;49.826;10.880;2023-02-26T03:36:39;98238;;;-1.27;75.52
4326;BME280;58429;49.826;10.880;2023-02-26T03:37:40;98233;;;-1.23;75.61
4326;BME280;58429;49.826;10.880;2023-02-26T03:38:40;98238;;;-1.29;75.67
4326;BME280;58429;49.826;10.880;2023-02-26T03:39:41;98235;;;-1.28;75.7
4326;BME280;58429;49.826;10.880;2023-02-26T03:40:40;98239;;;-1.28;75.77
4326;BME280;58429;49.826;10.880;2023-02-26T03:41:40;98242;;;-1.3;75.86
4326;BME280;58429;49.826;10.880;2023-02-26T03:42:40;98243;;;-1.28;75.86
4326;BME280;58429;49.826;10.880;2023-02-26T03:43:40;98246;;;-1.26;75.94
4326;BME280;58429;49.826;10.880;2023-02-26T03:44:41;98247;;;-1.28;75.95
4326;BME280;58429;49.826;10.880;2023-02-26T03:45:39;98246;;;-1.26;75.97
4326;BME280;58429;49.826;10.880;2023-02-26T03:46:40;98251;;;-1.24;75.93
4326;BME280;58429;49.826;10.880;2023-02-26T03:47:39;98247;;;-1.22;75.87
4326;BME280;58429;49.826;10.880;2023-02-26T03:48:39;98246;;;-1.27;76
4326;BME280;58429;49.826;10.880;2023-02-26T03:49:40;98246;;;-1.23;75.97
4326;BME280;58429;49.826;10.880;2023-02-26T03:50:40;98248;;;-1.28;75.78
4326;BME280;58429;49.826;10.880;2023-02-26T03:51:39;98241;;;-1.22;75.8
4326;BME280;58429;49.826;10.880;2023-02-26T03:52:40;98245;;;-1.24;75.68
4326;BME280;58429;49.826;10.880;2023-02-26T03:53:41;98244;;;-1.24;75.58
4326;BME280;58429;49.826;10.880;2023-02-26T03:54:40;98241;;;-1.24;75.66
4326;BME280;58429;49.826;10.880;2023-02-26T03:55:40;98248;;;-1.23;75.73
4326;BME280;58429;49.826;10.880;2023-02-26T03:56:40;98247;;;-1.27;75.74
4326;BME280;58429;49.826;10.880;2023-02-26T03:57:39;98248;;;-1.24;75.89
4326;BME280;58429;49.826;10.880;2023-02-26T03:58:39;98251;;;-1.28;75.76
4326;BME280;58429;49.826;10.880;2023-02-26T03:59:39;98255;;;-1.24;75.76
4326;BME280;58429;49.826;10.880;2023-02-26T04:00:40;98261;;;-1.3;75.63
4326;BME280;58429;49.826;10.880;2023-02-26T04:01:41;98260;;;-1.25;75.65
4326;BME280;58429;49.826;10.880;2023-02-26T04:02:40;98264;;;-1.24;75.7
4326;BME280;58429;49.826;10.880;2023-02-26T04:03:40;98260;;;-1.24;75.72
4326;BME280;58429;49.826;10.880;2023-02-26T04:04:41;98268;;;-1.2;75.79
4326;BME280;58429;49.826;10.880;2023-02-26T04:05:40;98260;;;-1.21;75.84
4326;BME280;58429;49.826;10.880;2023-02-26T04:06:39;98260;;;-1.21;75.78
4326;BME280;58429;49.826;10.880;2023-02-26T04:07:39;98266;;;-1.18;75.53
4326;BME280;58429;49.826;10.880;2023-02-26T04:08:39;98267;;;-1.2;75.5
4326;BME280;58429;49.826;10.880;2023-02-26T04:09:39;98284;;;-1.17;75.4
4326;BME280;58429;49.826;10.880;2023-02-26T04:10:40;98276;;;-1.17;75.5
4326;BME280;58429;49.826;10.880;2023-02-26T04:11:39;98273;;;-1.19;75.56
4326;BME280;58429;49.826;10.880;2023-02-26T04:12:39;98284;;;-1.17;75.46
4326;BME280;58429;49.826;10.880;2023-02-26T04:13:39;98281;;;-1.12;75.49
4326;BME280;58429;49.826;10.880;2023-02-26T04:14:39;98280;;;-1.15;75.39
4326;BME280;58429;49.826;10.880;2023-02-26T04:15:39;98284;;;-1.11;75.27
4326;BME280;58429;49.826;10.880;2023-02-26T04:16:39;98280;;;-1.15;75.25
4326;BME280;58429;49.826;10.880;2023-02-26T04:17:39;98283;;;-1.11;75.24
4326;BME280;58429;49.826;10.880;2023-02-26T04:18:39;98278;;;-1.14;75.22
4326;BME280;58429;49.826;10.880;2023-02-26T04:19:39;98279;;;-1.11;75.18
4326;BME280;58429;49.826;10.880;2023-02-26T04:20:39;98291;;;-1.13;75.15
4326;BME280;58429;49.826;10.880;2023-02-26T04:21:39;98290;;;-1.13;75.25
4326;BME280;58429;49.826;10.880;2023-02-26T04:22:39;98288;;;-1.14;75.45
4326;BME280;58429;49.826;10.880;2023-02-26T04:23:39;98284;;;-1.14;75.6
4326;BME280;58429;49.826;10.880;2023-02-26T04:24:39;98290;;;-1.12;75.42
4326;BME280;58429;49.826;10.880;2023-02-26T04:25:39;98292;;;-1.12;75.48
4326;BME280;58429;49.826;10.880;2023-02-26T04:26:39;98288;;;-1.1;75.53
4326;BME280;58429;49.826;10.880;2023-02-26T04:27:39;98285;;;-1.12;75.68
4326;BME280;58429;49.826;10.880;2023-02-26T04:28:39;98286;;;-1.09;75.75
4326;BME280;58429;49.826;10.880;2023-02-26T04:29:39;98289;;;-1.09;75.82
4326;BME280;58429;49.826;10.880;2023-02-26T04:30:39;98287;;;-1.07;75.68
4326;BME280;58429;49.826;10.880;2023-02-26T04:31:39;98286;;;-1.07;75.67
4326;BME280;58429;49.826;10.880;2023-02-26T04:32:39;98293;;;-1.06;75.75
4326;BME280;58429;49.826;10.880;2023-02-26T04:33:39;98291;;;-1.05;75.81
4326;BME280;58429;49.826;10.880;2023-02-26T04:34:39;98298;;;-1.07;75.69
4326;BME280;58429;49.826;10.880;2023-02-26T04:35:39;98295;;;-1.06;75.61
4326;BME280;58429;49.826;10.880;2023-02-26T04:36:39;98294;;;-1.09;75.5
4326;BME280;58429;49.826;10.880;2023-02-26T04:37:39;98299;;;-1.08;75.63
4326;BME280;58429;49.826;10.880;2023-02-26T04:38:39;98305;;;-1.12;75.61
4326;BME280;58429;49.826;10.880;2023-02-26T04:39:39;98303;;;-1.11;75.75
4326;BME280;58429;49.826;10.880;2023-02-26T04:40:39;98296;;;-1.09;75.97
4326;BME280;58429;49.826;10.880;2023-02-26T04:41:39;98298;;;-1.13;76.09
4326;BME280;58429;49.826;10.880;2023-02-26T04:42:39;98299;;;-1.12;76.09
4326;BME280;58429;49.826;10.880;2023-02-26T04:43:40;98306;;;-1.13;75.97
4326;BME280;58429;49.826;10.880;2023-02-26T04:44:39;98303;;;-1.14;76.19
4326;BME280;58429;49.826;10.880;2023-02-26T04:45:39;98307;;;-1.12;76.11
4326;BME280;58429;49.826;10.880;2023-02-26T04:46:39;98308;;;-1.12;76.06
4326;BME280;58429;49.826;10.880;2023-02-26T04:47:39;98316;;;-1.11;76.14
4326;BME280;58429;49.826;10.880;2023-02-26T04:48:39;98310;;;-1.07;76.17
4326;BME280;58429;49.826;10.880;2023-02-26T04:49:39;98310;;;-1.09;76.13
4326;BME280;58429;49.826;10.880;2023-02-26T04:50:39;98315;;;-1.09;76.15
4326;BME280;58429;49.826;10.880;2023-02-26T04:51:39;98315;;;-1.06;76.18
4326;BME280;58429;49.826;10.880;2023-02-26T04:52:39;98318;;;-1.07;76.18
4326;BME280;58429;49.826;10.880;2023-02-26T04:53:39;98312;;;-1.05;76.19
4326;BME280;58429;49.826;10.880;2023-02-26T04:54:39;98319;;;-1.07;76.19
4326;BME280;58429;49.826;10.880;2023-02-26T04:55:39;98323;;;-1.04;76.2
4326;BME280;58429;49.826;10.880;2023-02-26T04:56:39;98321;;;-1.06;76.2
4326;BME280;58429;49.826;10.880;2023-02-26T04:57:39;98322;;;-1.05;76.26
4326;BME280;58429;49.826;10.880;2023-02-26T04:58:39;98321;;;-1;76.4
4326;BME280;58429;49.826;10.880;2023-02-26T04:59:39;98330;;;-0.96;76.35
4326;BME280;58429;49.826;10.880;2023-02-26T05:00:39;98328;;;-0.99;76.29
4326;BME280;58429;49.826;10.880;2023-02-26T05:01:39;98327;;;-0.96;76.35
4326;BME280;58429;49.826;10.880;2023-02-26T05:02:39;98330;;;-0.93;76.32
4326;BME280;58429;49.826;10.880;2023-02-26T05:03:39;98329;;;-0.95;76.38
4326;BME280;58429;49.826;10.880;2023-02-26T05:04:39;98328;;;-0.97;76.5
4326;BME280;58429;49.826;10.880;2023-02-26T05:05:39;98326;;;-0.97;76.5
4326;BME280;58429;49.826;10.880;2023-02-26T05:06:39;98329;;;-0.92;76.48
4326;BME280;58429;49.826;10.880;2023-02-26T05:07:39;98329;;;-0.92;76.51
4326;BME280;58429;49.826;10.880;2023-02-26T05:08:39;98330;;;-0.92;76.45
4326;BME280;58429;49.826;10.880;2023-02-26T05:09:39;98334;;;-0.92;76.48
4326;BME280;58429;49.826;10.880;2023-02-26T05:10:39;98333;;;-0.89;76.46
4326;BME280;58429;49.826;10.880;2023-02-26T05:11:39;98334;;;-0.91;76.47
4326;BME280;58429;49.826;10.880;2023-02-26T05:12:39;98330;;;-0.85;76.44
4326;BME280;58429;49.826;10.880;2023-02-26T05:13:39;98339;;;-0.87;76.39
4326;BME280;58429;49.826;10.880;2023-02-26T05:14:39;98334;;;-0.83;76.42
4326;BME280;58429;49.826;10.880;2023-02-26T05:15:39;98339;;;-0.8;76.48
4326;BME280;58429;49.826;10.880;2023-02-26T05:16:39;98336;;;-0.79;76.51
4326;BME280;58429;49.826;10.880;2023-02-26T05:17:39;98339;;;-0.79;76.46
4326;BME280;58429;49.826;10.880;2023-02-26T05:18:39;98344;;;-0.77;76.46
4326;BME280;58429;49.826;10.880;2023-02-26T05:19:39;98337;;;-0.79;76.4
4326;BME280;58429;49.826;10.880;2023-02-26T05:20:39;98341;;;-0.81;76.44
4326;BME280;58429;49.826;10.880;2023-02-26T05:21:39;98344;;;-0.79;76.6
4326;BME280;58429;49.826;10.880;2023-02-26T05:22:39;98349;;;-0.82;76.65
4326;BME280;58429;49.826;10.880;2023-02-26T05:23:39;98348;;;-0.81;76.64
4326;BME280;58429;49.826;10.880;2023-02-26T05:24:39;98349;;;-0.84;76.63
4326;BME280;58429;49.826;10.880;2023-02-26T05:25:39;98354;;;-0.87;76.66
4326;BME280;58429;49.826;10.880;2023-02-26T05:26:39;98350;;;-0.87;76.7
4326;BME280;58429;49.826;10.880;2023-02-26T05:27:40;98357;;;-0.83;76.79
4326;BME280;58429;49.826;10.880;2023-02-26T05:28:39;98361;;;-0.84;76.8
4326;BME280;58429;49.826;10.880;2023-02-26T05:29:39;98351;;;-0.82;76.76
4326;BME280;58429;49.826;10.880;2023-02-26T05:30:39;98353;;;-0.78;76.77
4326;BME280;58429;49.826;10.880;2023-02-26T05:31:39;98355;;;-0.79;76.85
4326;BME280;58429;49.826;10.880;2023-02-26T05:32:40;98361;;;-0.84;76.89